sensor_id;sensor_type;location;lat;lon;timestamp;pressure;altitude;pressure_sealevel;temperature;humidity
59608;BME280;45426;44.726;10.390;2023-01-25T00:01:51;101876.84;;;6.45;100.00
59608;BME280;45426;44.726;10.390;2023-01-25T00:04:21;101878.72;;;6.39;100.00
59608;BME280;45426;44.726;10.390;2023-01-25T00:06:48;101877.13;;;6.49;100.00
59608;BME280;45426;44.726;10.390;2023-01-25T00:09:14;101875.53;;;6.53;100.00
59608;BME280;45426;44.726;10.390;2023-01-25T00:11:41;101871.47;;;6.60;100.00
59608;BME280;45426;44.726;10.390;2023-01-25T00:14:06;101869.56;;;6.61;100.00
59608;BME280;45426;44.726;10.390;2023-01-25T00:16:32;101869.56;;;6.51;100.00
59608;BME280;45426;44.726;10.390;2023-01-25T00:18:57;101862.00;;;6.63;100.00
59608;BME280;45426;44.726;10.390;2023-01-25T00:21:26;101862.81;;;6.64;100.00
59608;BME280;45426;44.726;10.390;2023-01-25T00:23:52;101861.47;;;6.56;100.00
59608;BME280;45426;44.726;10.390;2023-01-25T00:26:17;101857.97;;;6.60;100.00
59608;BME280;45426;44.726;10.390;2023-01-25T00:28:54;101854.16;;;6.56;100.00
59608;BME280;45426;44.726;10.390;2023-01-25T00:37:01;101846.06;;;6.61;100.00
59608;BME280;45426;44.726;10.390;2023-01-25T00:39:27;101845.81;;;6.53;100.00
59608;BME280;45426;44.726;10.390;2023-01-25T00:41:54;101846.34;;;6.60;100.00
59608;BME280;45426;44.726;10.390;2023-01-25T00:44:20;101843.66;;;6.50;100.00
59608;BME280;45426;44.726;10.390;2023-01-25T00:46:45;101848.50;;;6.58;100.00
59608;BME280;45426;44.726;10.390;2023-01-25T00:49:20;101851.19;;;6.37;100.00
59608;BME280;45426;44.726;10.390;2023-01-25T00:51:46;101840.94;;;6.70;100.00
59608;BME280;45426;44.726;10.390;2023-01-25T00:54:11;101849.03;;;6.60;100.00
59608;BME280;45426;44.726;10.390;2023-01-25T00:56:37;101841.75;;;6.71;100.00
59608;BME280;45426;44.726;10.390;2023-01-25T00:59:02;101849.03;;;6.65;100.00
59608;BME280;45426;44.726;10.390;2023-01-25T01:01:28;101839.59;;;6.73;100.00
59608;BME280;45426;44.726;10.390;2023-01-25T01:03:53;101836.63;;;6.59;100.00
59608;BME280;45426;44.726;10.390;2023-01-25T01:06:18;101845.28;;;6.66;100.00
59608;BME280;45426;44.726;10.390;2023-01-25T01:08:44;101836.91;;;6.57;100.00
59608;BME280;45426;44.726;10.390;2023-01-25T01:11:11;101847.69;;;6.37;100.00
59608;BME280;45426;44.726;10.390;2023-01-25T01:13:37;101843.09;;;6.37;100.00
59608;BME280;45426;44.726;10.390;2023-01-25T01:16:04;101848.50;;;6.43;100.00
59608;BME280;45426;44.726;10.390;2023-01-25T01:18:34;101844.19;;;6.41;100.00
59608;BME280;45426;44.726;10.390;2023-01-25T01:20:59;101852.56;;;6.40;100.00
59608;BME280;45426;44.726;10.390;2023-01-25T01:23:27;101846.06;;;6.56;100.00
59608;BME280;45426;44.726;10.390;2023-01-25T01:25:52;101847.44;;;6.44;100.00
59608;BME280;45426;44.726;10.390;2023-01-25T01:28:18;101839.06;;;6.50;100.00
59608;BME280;45426;44.726;10.390;2023-01-25T01:30:43;101834.19;;;6.63;100.00
59608;BME280;45426;44.726;10.390;2023-01-25T01:33:08;101835.56;;;6.50;100.00
59608;BME280;45426;44.726;10.390;2023-01-25T01:35:34;101834.22;;;6.47;100.00
59608;BME280;45426;44.726;10.390;2023-01-25T01:37:59;101827.47;;;6.55;100.00
59608;BME280;45426;44.726;10.390;2023-01-25T01:40:25;101831.25;;;6.44;100.00
59608;BME280;45426;44.726;10.390;2023-01-25T01:48:29;101840.41;;;6.43;100.00
59608;BME280;45426;44.726;10.390;2023-01-25T01:51:02;101837.69;;;6.63;100.00
59608;BME280;45426;44.726;10.390;2023-01-25T01:53:31;101838.25;;;6.55;100.00
59608;BME280;45426;44.726;10.390;2023-01-25T01:56:01;101837.69;;;6.27;100.00
59608;BME280;45426;44.726;10.390;2023-01-25T01:58:29;101836.09;;;6.52;100.00
59608;BME280;45426;44.726;10.390;2023-01-25T02:00:55;101832.84;;;6.45;100.00
59608;BME280;45426;44.726;10.390;2023-01-25T02:03:21;101833.94;;;6.59;100.00
59608;BME280;45426;44.726;10.390;2023-01-25T02:08:18;101831.78;;;6.46;100.00
59608;BME280;45426;44.726;10.390;2023-01-25T02:10:45;101820.16;;;6.60;100.00
59608;BME280;45426;44.726;10.390;2023-01-25T02:13:11;101823.13;;;6.54;100.00
59608;BME280;45426;44.726;10.390;2023-01-25T02:15:40;101827.16;;;6.36;100.00
59608;BME280;45426;44.726;10.390;2023-01-25T02:18:10;101829.06;;;6.46;100.00
59608;BME280;45426;44.726;10.390;2023-01-25T02:20:37;101828.25;;;6.45;100.00
59608;BME280;45426;44.726;10.390;2023-01-25T02:23:15;101834.19;;;6.42;100.00
59608;BME280;45426;44.726;10.390;2023-01-25T02:25:43;101822.84;;;6.45;100.00
59608;BME280;45426;44.726;10.390;2023-01-25T02:28:28;101829.06;;;6.56;100.00
59608;BME280;45426;44.726;10.390;2023-01-25T02:30:55;101823.91;;;6.75;100.00
59608;BME280;45426;44.726;10.390;2023-01-25T02:33:23;101824.75;;;6.45;100.00
59608;BME280;45426;44.726;10.390;2023-01-25T02:35:57;101827.97;;;6.67;100.00
59608;BME280;45426;44.726;10.390;2023-01-25T02:38:24;101818.00;;;6.42;100.00
59608;BME280;45426;44.726;10.390;2023-01-25T02:43:15;101815.03;;;6.44;100.00
59608;BME280;45426;44.726;10.390;2023-01-25T02:45:43;101813.13;;;6.54;100.00
59608;BME280;45426;44.726;10.390;2023-01-25T02:48:10;101816.13;;;6.53;100.00
59608;BME280;45426;44.726;10.390;2023-01-25T02:50:35;101817.19;;;6.57;100.00
59608;BME280;45426;44.726;10.390;2023-01-25T02:53:01;101814.47;;;6.67;100.00
59608;BME280;45426;44.726;10.390;2023-01-25T02:55:26;101811.78;;;6.67;100.00
59608;BME280;45426;44.726;10.390;2023-01-25T02:57:52;101815.28;;;6.52;100.00
59608;BME280;45426;44.726;10.390;2023-01-25T03:00:17;101812.88;;;6.66;100.00
59608;BME280;45426;44.726;10.390;2023-01-25T03:02:43;101807.47;;;6.66;100.00
59608;BME280;45426;44.726;10.390;2023-01-25T03:05:08;101808.00;;;6.58;100.00
59608;BME280;45426;44.726;10.390;2023-01-25T03:07:34;101804.50;;;6.52;100.00
59608;BME280;45426;44.726;10.390;2023-01-25T03:09:59;101796.13;;;6.59;100.00
59608;BME280;45426;44.726;10.390;2023-01-25T03:12:24;101793.16;;;6.50;100.00
59608;BME280;45426;44.726;10.390;2023-01-25T03:14:50;101799.91;;;6.63;100.00
59608;BME280;45426;44.726;10.390;2023-01-25T03:17:15;101798.81;;;6.54;100.00
59608;BME280;45426;44.726;10.390;2023-01-25T03:19:40;101793.97;;;6.46;100.00
59608;BME280;45426;44.726;10.390;2023-01-25T03:22:06;101785.84;;;6.51;100.00
59608;BME280;45426;44.726;10.390;2023-01-25T03:24:31;101793.72;;;6.47;100.00
59608;BME280;45426;44.726;10.390;2023-01-25T03:26:57;101787.50;;;6.41;100.00
59608;BME280;45426;44.726;10.390;2023-01-25T03:29:35;101778.88;;;6.34;100.00
59608;BME280;45426;44.726;10.390;2023-01-25T03:32:00;101782.91;;;6.37;100.00
59608;BME280;45426;44.726;10.390;2023-01-25T03:34:26;101781.53;;;6.39;100.00
59608;BME280;45426;44.726;10.390;2023-01-25T03:36:51;101773.72;;;6.53;100.00
59608;BME280;45426;44.726;10.390;2023-01-25T03:39:16;101770.22;;;6.53;100.00
59608;BME280;45426;44.726;10.390;2023-01-25T03:41:42;101758.31;;;6.54;100.00
59608;BME280;45426;44.726;10.390;2023-01-25T03:44:08;101753.72;;;6.59;100.00
59608;BME280;45426;44.726;10.390;2023-01-25T03:46:39;101762.38;;;6.51;100.00
59608;BME280;45426;44.726;10.390;2023-01-25T03:49:05;101758.34;;;6.44;100.00
59608;BME280;45426;44.726;10.390;2023-01-25T03:51:30;101756.19;;;6.46;100.00
59608;BME280;45426;44.726;10.390;2023-01-25T03:53:56;101747.25;;;6.55;100.00
59608;BME280;45426;44.726;10.390;2023-01-25T03:56:21;101743.22;;;6.48;100.00
59608;BME280;45426;44.726;10.390;2023-01-25T03:58:46;101753.47;;;6.46;100.00
59608;BME280;45426;44.726;10.390;2023-01-25T04:01:12;101762.66;;;6.45;100.00
59608;BME280;45426;44.726;10.390;2023-01-25T04:03:37;101749.72;;;6.41;100.00
59608;BME280;45426;44.726;10.390;2023-01-25T04:06:04;101755.63;;;6.49;100.00
59608;BME280;45426;44.726;10.390;2023-01-25T04:08:30;101750.75;;;6.56;100.00
59608;BME280;45426;44.726;10.390;2023-01-25T04:10:59;101748.63;;;6.43;100.00
59608;BME280;45426;44.726;10.390;2023-01-25T04:13:25;101743.47;;;6.46;100.00
59608;BME280;45426;44.726;10.390;2023-01-25T04:15:51;101744.81;;;6.59;100.00
59608;BME280;45426;44.726;10.390;2023-01-25T04:18:17;101748.06;;;6.66;100.00
59608;BME280;45426;44.726;10.390;2023-01-25T04:20:43;101741.56;;;6.72;100.00
59608;BME280;45426;44.726;10.390;2023-01-25T04:23:09;101736.19;;;6.47;100.00
59608;BME280;45426;44.726;10.390;2023-01-25T04:25:35;101737.56;;;6.39;100.00
59608;BME280;45426;44.726;10.390;2023-01-25T04:28:01;101736.47;;;6.40;100.00
59608;BME280;45426;44.726;10.390;2023-01-25T04:30:26;101732.94;;;6.45;100.00
59608;BME280;45426;44.726;10.390;2023-01-25T04:32:51;101741.06;;;6.39;100.00
59608;BME280;45426;44.726;10.390;2023-01-25T04:35:17;101736.19;;;6.52;100.00
59608;BME280;45426;44.726;10.390;2023-01-25T04:37:51;101738.88;;;6.52;100.00
59608;BME280;45426;44.726;10.390;2023-01-25T04:40:17;101737.81;;;6.43;100.00
59608;BME280;45426;44.726;10.390;2023-01-25T04:42:42;101735.38;;;6.51;100.00
59608;BME280;45426;44.726;10.390;2023-01-25T04:45:08;101737.81;;;6.43;100.00
59608;BME280;45426;44.726;10.390;2023-01-25T04:47:34;101743.72;;;6.60;100.00
59608;BME280;45426;44.726;10.390;2023-01-25T04:49:59;101738.88;;;6.47;100.00
59608;BME280;45426;44.726;10.390;2023-01-25T04:52:24;101741.56;;;6.62;100.00
59608;BME280;45426;44.726;10.390;2023-01-25T04:54:50;101729.16;;;6.56;100.00
59608;BME280;45426;44.726;10.390;2023-01-25T04:57:15;101720.53;;;6.49;100.00
59608;BME280;45426;44.726;10.390;2023-01-25T04:59:41;101727.78;;;6.64;100.00
59608;BME280;45426;44.726;10.390;2023-01-25T05:02:06;101731.63;;;6.42;100.00
59608;BME280;45426;44.726;10.390;2023-01-25T05:04:31;101739.47;;;6.18;100.00
59608;BME280;45426;44.726;10.390;2023-01-25T05:06:57;101726.47;;;6.35;100.00
59608;BME280;45426;44.726;10.390;2023-01-25T05:09:22;101723.75;;;6.56;100.00
59608;BME280;45426;44.726;10.390;2023-01-25T05:11:47;101730.53;;;6.43;100.00
59608;BME280;45426;44.726;10.390;2023-01-25T05:14:13;101728.66;;;6.38;100.00
59608;BME280;45426;44.726;10.390;2023-01-25T05:16:38;101730.53;;;6.28;100.00
59608;BME280;45426;44.726;10.390;2023-01-25T05:19:04;101731.31;;;6.59;100.00
59608;BME280;45426;44.726;10.390;2023-01-25T05:21:29;101744.03;;;6.33;100.00
59608;BME280;45426;44.726;10.390;2023-01-25T05:24:13;101732.66;;;6.67;100.00
59608;BME280;45426;44.726;10.390;2023-01-25T05:26:38;101727.50;;;6.70;100.00
59608;BME280;45426;44.726;10.390;2023-01-25T05:29:23;101719.41;;;6.65;100.00
59608;BME280;45426;44.726;10.390;2023-01-25T05:31:48;101717.56;;;6.60;100.00
59608;BME280;45426;44.726;10.390;2023-01-25T05:34:13;101713.50;;;6.58;100.00
59608;BME280;45426;44.726;10.390;2023-01-25T05:36:39;101713.16;;;6.75;100.00
59608;BME280;45426;44.726;10.390;2023-01-25T05:39:05;101713.00;;;6.40;100.00
59608;BME280;45426;44.726;10.390;2023-01-25T05:41:31;101715.16;;;6.38;100.00
59608;BME280;45426;44.726;10.390;2023-01-25T05:43:56;101717.56;;;6.60;100.00
59608;BME280;45426;44.726;10.390;2023-01-25T05:46:21;101713.53;;;6.37;100.00
59608;BME280;45426;44.726;10.390;2023-01-25T05:48:47;101717.31;;;6.26;100.00
59608;BME280;45426;44.726;10.390;2023-01-25T05:51:12;101725.13;;;6.43;100.00
59608;BME280;45426;44.726;10.390;2023-01-25T05:53:38;101732.44;;;6.32;100.00
59608;BME280;45426;44.726;10.390;2023-01-25T05:56:07;101732.97;;;6.19;100.00
59608;BME280;45426;44.726;10.390;2023-01-25T05:58:34;101734.31;;;6.11;100.00
59608;BME280;45426;44.726;10.390;2023-01-25T06:01:00;101732.16;;;6.18;100.00
59608;BME280;45426;44.726;10.390;2023-01-25T06:03:26;101739.16;;;6.25;100.00
59608;BME280;45426;44.726;10.390;2023-01-25T06:06:00;101729.47;;;6.03;100.00
59608;BME280;45426;44.726;10.390;2023-01-25T06:08:30;101729.19;;;5.99;100.00
59608;BME280;45426;44.726;10.390;2023-01-25T06:10:56;101733.00;;;6.14;100.00
59608;BME280;45426;44.726;10.390;2023-01-25T06:13:22;101723.78;;;6.15;100.00
59608;BME280;45426;44.726;10.390;2023-01-25T06:15:54;101727.84;;;6.22;100.00
59608;BME280;45426;44.726;10.390;2023-01-25T06:18:21;101728.34;;;5.94;100.00
59608;BME280;45426;44.726;10.390;2023-01-25T06:20:46;101730.00;;;6.05;100.00
59608;BME280;45426;44.726;10.390;2023-01-25T06:23:12;101724.59;;;5.95;100.00
59608;BME280;45426;44.726;10.390;2023-01-25T06:25:38;101730.25;;;5.88;100.00
59608;BME280;45426;44.726;10.390;2023-01-25T06:28:03;101728.63;;;5.92;100.00
59608;BME280;45426;44.726;10.390;2023-01-25T06:30:29;101724.59;;;5.90;100.00
59608;BME280;45426;44.726;10.390;2023-01-25T06:32:57;101726.47;;;5.94;100.00
59608;BME280;45426;44.726;10.390;2023-01-25T06:35:22;101722.72;;;6.11;100.00
59608;BME280;45426;44.726;10.390;2023-01-25T06:37:47;101730.53;;;6.07;100.00
59608;BME280;45426;44.726;10.390;2023-01-25T06:40:13;101732.44;;;6.12;100.00
59608;BME280;45426;44.726;10.390;2023-01-25T06:42:39;101731.88;;;6.15;100.00
59608;BME280;45426;44.726;10.390;2023-01-25T06:45:04;101732.97;;;5.98;100.00
59608;BME280;45426;44.726;10.390;2023-01-25T06:47:30;101741.06;;;6.09;100.00
59608;BME280;45426;44.726;10.390;2023-01-25T06:49:55;101733.25;;;6.12;100.00
59608;BME280;45426;44.726;10.390;2023-01-25T06:52:21;101728.13;;;6.11;100.00
59608;BME280;45426;44.726;10.390;2023-01-25T06:54:46;101728.66;;;6.08;100.00
59608;BME280;45426;44.726;10.390;2023-01-25T06:57:11;101737.84;;;6.12;100.00
59608;BME280;45426;44.726;10.390;2023-01-25T06:59:37;101713.53;;;6.37;100.00
59608;BME280;45426;44.726;10.390;2023-01-25T07:02:02;101717.81;;;6.59;100.00
59608;BME280;45426;44.726;10.390;2023-01-25T07:04:28;101715.69;;;6.46;100.00
59608;BME280;45426;44.726;10.390;2023-01-25T07:06:53;101711.66;;;6.33;100.00
59608;BME280;45426;44.726;10.390;2023-01-25T07:09:19;101717.88;;;6.13;100.00
59608;BME280;45426;44.726;10.390;2023-01-25T07:11:49;101709.22;;;6.36;100.00
59608;BME280;45426;44.726;10.390;2023-01-25T07:14:14;101719.22;;;6.10;100.00
59608;BME280;45426;44.726;10.390;2023-01-25T07:16:39;101706.00;;;6.34;100.00
59608;BME280;45426;44.726;10.390;2023-01-25T07:19:06;101717.28;;;6.57;100.00
59608;BME280;45426;44.726;10.390;2023-01-25T07:21:32;101713.53;;;6.27;100.00
59608;BME280;45426;44.726;10.390;2023-01-25T07:24:02;101709.72;;;6.54;100.00
59608;BME280;45426;44.726;10.390;2023-01-25T07:26:28;101712.41;;;6.54;100.00
59608;BME280;45426;44.726;10.390;2023-01-25T07:28:55;101714.22;;;6.84;100.00
59608;BME280;45426;44.726;10.390;2023-01-25T07:31:22;101713.00;;;6.40;100.00
59608;BME280;45426;44.726;10.390;2023-01-25T07:33:52;101712.69;;;6.57;100.00
59608;BME280;45426;44.726;10.390;2023-01-25T07:36:18;101720.22;;;6.71;100.00
59608;BME280;45426;44.726;10.390;2023-01-25T07:38:44;101718.03;;;6.73;100.00
59608;BME280;45426;44.726;10.390;2023-01-25T07:41:10;101725.88;;;6.69;100.00
59608;BME280;45426;44.726;10.390;2023-01-25T07:43:36;101726.47;;;6.40;100.00
59608;BME280;45426;44.726;10.390;2023-01-25T07:46:03;101739.72;;;6.16;100.00
59608;BME280;45426;44.726;10.390;2023-01-25T07:48:29;101729.72;;;6.48;100.00
59608;BME280;45426;44.726;10.390;2023-01-25T07:51:01;101731.28;;;6.74;100.00
59608;BME280;45426;44.726;10.390;2023-01-25T07:53:44;101728.88;;;6.57;100.00
59608;BME280;45426;44.726;10.390;2023-01-25T07:56:11;101717.25;;;6.62;100.00
59608;BME280;45426;44.726;10.390;2023-01-25T07:58:37;101714.59;;;6.47;100.00
59608;BME280;45426;44.726;10.390;2023-01-25T08:01:17;101719.44;;;6.55;100.00
59608;BME280;45426;44.726;10.390;2023-01-25T08:03:43;101715.59;;;6.87;100.00
59608;BME280;45426;44.726;10.390;2023-01-25T08:06:09;101710.72;;;6.84;100.00
59608;BME280;45426;44.726;10.390;2023-01-25T08:08:38;101716.19;;;6.73;100.00
59608;BME280;45426;44.726;10.390;2023-01-25T08:11:15;101711.00;;;6.82;100.00
59608;BME280;45426;44.726;10.390;2023-01-25T08:13:41;101712.31;;;6.90;100.00
59608;BME280;45426;44.726;10.390;2023-01-25T08:16:11;101713.09;;;6.95;100.00
59608;BME280;45426;44.726;10.390;2023-01-25T08:18:36;101722.38;;;6.79;100.00
59608;BME280;45426;44.726;10.390;2023-01-25T08:21:02;101714.41;;;7.08;100.00
59608;BME280;45426;44.726;10.390;2023-01-25T08:23:28;101712.41;;;7.29;100.00
59608;BME280;45426;44.726;10.390;2023-01-25T08:25:53;101704.34;;;7.24;100.00
59608;BME280;45426;44.726;10.390;2023-01-25T08:28:21;101698.41;;;7.22;100.00
59608;BME280;45426;44.726;10.390;2023-01-25T08:30:46;101705.44;;;7.18;100.00
59608;BME280;45426;44.726;10.390;2023-01-25T08:33:12;101706.13;;;6.84;100.00
59608;BME280;45426;44.726;10.390;2023-01-25T08:35:37;101699.06;;;6.98;100.00
59608;BME280;45426;44.726;10.390;2023-01-25T08:38:03;101708.63;;;7.35;100.00
59608;BME280;45426;44.726;10.390;2023-01-25T08:40:29;101706.22;;;7.29;100.00
59608;BME280;45426;44.726;10.390;2023-01-25T08:42:54;101695.09;;;7.80;100.00
59608;BME280;45426;44.726;10.390;2023-01-25T08:45:20;101700.59;;;7.65;100.00
59608;BME280;45426;44.726;10.390;2023-01-25T08:47:45;101700.97;;;7.87;100.00
59608;BME280;45426;44.726;10.390;2023-01-25T08:50:10;101692.13;;;8.40;100.00
59608;BME280;45426;44.726;10.390;2023-01-25T08:52:36;101690.66;;;8.77;100.00
59608;BME280;45426;44.726;10.390;2023-01-25T08:55:01;101686.16;;;8.14;100.00
59608;BME280;45426;44.726;10.390;2023-01-25T08:57:27;101688.88;;;8.09;100.00
59608;BME280;45426;44.726;10.390;2023-01-25T08:59:52;101689.91;;;7.84;100.00
59608;BME280;45426;44.726;10.390;2023-01-25T09:02:18;101679.31;;;8.22;100.00
59608;BME280;45426;44.726;10.390;2023-01-25T09:04:45;101676.66;;;7.82;100.00
59608;BME280;45426;44.726;10.390;2023-01-25T09:07:10;101679.88;;;7.89;100.00
59608;BME280;45426;44.726;10.390;2023-01-25T09:09:36;101662.53;;;7.90;100.00
59608;BME280;45426;44.726;10.390;2023-01-25T09:12:01;101671.75;;;7.50;100.00
59608;BME280;45426;44.726;10.390;2023-01-25T09:14:27;101667.59;;;7.63;100.00
59608;BME280;45426;44.726;10.390;2023-01-25T09:16:52;101659.69;;;7.71;100.00
59608;BME280;45426;44.726;10.390;2023-01-25T09:19:17;101657.88;;;8.25;100.00
59608;BME280;45426;44.726;10.390;2023-01-25T09:21:43;101653.88;;;9.33;100.00
59608;BME280;45426;44.726;10.390;2023-01-25T09:24:08;101642.75;;;9.86;100.00
59608;BME280;45426;44.726;10.390;2023-01-25T09:26:36;101636.47;;;10.05;100.00
59608;BME280;45426;44.726;10.390;2023-01-25T09:29:02;101648.66;;;8.99;100.00
59608;BME280;45426;44.726;10.390;2023-01-25T09:31:28;101654.44;;;8.92;100.00
59608;BME280;45426;44.726;10.390;2023-01-25T09:33:54;101656.22;;;8.59;100.00
59608;BME280;45426;44.726;10.390;2023-01-25T09:36:20;101656.69;;;7.78;100.00
59608;BME280;45426;44.726;10.390;2023-01-25T09:38:46;101656.16;;;8.34;100.00
59608;BME280;45426;44.726;10.390;2023-01-25T09:46:49;101646.94;;;8.35;100.00
59608;BME280;45426;44.726;10.390;2023-01-25T09:55:18;101637.84;;;10.35;100.00
59608;BME280;45426;44.726;10.390;2023-01-25T09:57:45;101646.31;;;9.68;100.00
59608;BME280;45426;44.726;10.390;2023-01-25T10:05:48;101617.91;;;9.46;100.00
59608;BME280;45426;44.726;10.390;2023-01-25T10:08:37;101640.06;;;8.19;100.00
59608;BME280;45426;44.726;10.390;2023-01-25T10:11:23;101624.31;;;10.16;100.00
59608;BME280;45426;44.726;10.390;2023-01-25T10:13:50;101603.97;;;15.38;100.00
59608;BME280;45426;44.726;10.390;2023-01-25T10:16:24;101592.53;;;17.17;100.00
59608;BME280;45426;44.726;10.390;2023-01-25T10:21:57;101583.53;;;17.61;100.00
59608;BME280;45426;44.726;10.390;2023-01-25T10:29:47;101575.66;;;15.13;100.00
59608;BME280;45426;44.726;10.390;2023-01-25T10:32:30;101574.88;;;14.91;100.00
59608;BME280;45426;44.726;10.390;2023-01-25T10:35:20;101583.00;;;13.72;100.00
59608;BME280;45426;44.726;10.390;2023-01-25T10:37:44;101584.78;;;10.79;100.00
59608;BME280;45426;44.726;10.390;2023-01-25T10:40:31;101576.31;;;10.81;100.00
59608;BME280;45426;44.726;10.390;2023-01-25T10:43:02;101567.41;;;10.39;100.00
59608;BME280;45426;44.726;10.390;2023-01-25T10:45:31;101579.06;;;9.65;100.00
59608;BME280;45426;44.726;10.390;2023-01-25T10:48:05;101561.84;;;10.58;100.00
59608;BME280;45426;44.726;10.390;2023-01-25T10:53:38;101551.41;;;10.51;100.00
59608;BME280;45426;44.726;10.390;2023-01-25T10:58:37;101537.03;;;10.87;100.00
59608;BME280;45426;44.726;10.390;2023-01-25T11:01:05;101537.00;;;10.51;100.00
59608;BME280;45426;44.726;10.390;2023-01-25T11:03:42;101524.94;;;11.16;100.00
59608;BME280;45426;44.726;10.390;2023-01-25T11:06:11;101520.66;;;11.77;100.00
59608;BME280;45426;44.726;10.390;2023-01-25T11:08:41;101518.50;;;10.89;100.00
59608;BME280;45426;44.726;10.390;2023-01-25T11:13:52;101510.72;;;10.74;100.00
59608;BME280;45426;44.726;10.390;2023-01-25T11:16:28;101502.00;;;10.85;100.00
59608;BME280;45426;44.726;10.390;2023-01-25T11:18:56;101496.25;;;9.21;100.00
59608;BME280;45426;44.726;10.390;2023-01-25T11:21:24;101497.78;;;9.60;100.00
59608;BME280;45426;44.726;10.390;2023-01-25T11:24:16;101484.31;;;10.10;100.00
59608;BME280;45426;44.726;10.390;2023-01-25T11:26:43;101481.19;;;9.89;100.00
59608;BME280;45426;44.726;10.390;2023-01-25T11:31:43;101467.31;;;9.63;100.00
59608;BME280;45426;44.726;10.390;2023-01-25T11:34:12;101463.09;;;9.70;100.00
59608;BME280;45426;44.726;10.390;2023-01-25T11:36:50;101456.56;;;10.63;100.00
59608;BME280;45426;44.726;10.390;2023-01-25T11:42:11;101448.63;;;10.03;100.00
59608;BME280;45426;44.726;10.390;2023-01-25T11:47:53;101440.28;;;11.40;100.00
59608;BME280;45426;44.726;10.390;2023-01-25T11:56:02;101427.44;;;11.32;100.00
59608;BME280;45426;44.726;10.390;2023-01-25T12:06:41;101417.38;;;9.91;100.00
59608;BME280;45426;44.726;10.390;2023-01-25T12:12:17;101417.53;;;8.79;100.00
59608;BME280;45426;44.726;10.390;2023-01-25T12:18:04;101397.66;;;8.84;100.00
59608;BME280;45426;44.726;10.390;2023-01-25T12:23:40;101379.97;;;9.61;100.00
59608;BME280;45426;44.726;10.390;2023-01-25T12:32:02;101374.00;;;10.14;100.00
59608;BME280;45426;44.726;10.390;2023-01-25T12:34:42;101373.38;;;10.31;100.00
59608;BME280;45426;44.726;10.390;2023-01-25T12:37:21;101379.22;;;10.10;100.00
59608;BME280;45426;44.726;10.390;2023-01-25T12:39:56;101373.03;;;9.82;100.00
59608;BME280;45426;44.726;10.390;2023-01-25T12:42:52;101365.72;;;9.41;100.00
59608;BME280;45426;44.726;10.390;2023-01-25T12:45:24;101361.28;;;9.73;100.00
59608;BME280;45426;44.726;10.390;2023-01-25T12:50:39;101351.16;;;9.51;100.00
59608;BME280;45426;44.726;10.390;2023-01-25T12:53:16;101350.94;;;9.61;100.00
59608;BME280;45426;44.726;10.390;2023-01-25T12:55:44;101349.53;;;9.50;100.00
59608;BME280;45426;44.726;10.390;2023-01-25T12:58:30;101349.31;;;9.05;100.00
59608;BME280;45426;44.726;10.390;2023-01-25T13:01:10;101345.53;;;9.33;100.00
59608;BME280;45426;44.726;10.390;2023-01-25T13:04:02;101341.53;;;9.45;100.00
59608;BME280;45426;44.726;10.390;2023-01-25T13:06:46;101339.28;;;9.33;100.00
59608;BME280;45426;44.726;10.390;2023-01-25T13:09:40;101341.00;;;9.29;100.00
59608;BME280;45426;44.726;10.390;2023-01-25T13:12:09;101339.50;;;9.50;100.00
59608;BME280;45426;44.726;10.390;2023-01-25T13:14:37;101336.78;;;9.37;100.00
59608;BME280;45426;44.726;10.390;2023-01-25T13:17:30;101341.72;;;9.48;100.00
59608;BME280;45426;44.726;10.390;2023-01-25T13:19:57;101329.72;;;9.77;100.00
59608;BME280;45426;44.726;10.390;2023-01-25T13:27:42;101320.19;;;8.97;100.00
59608;BME280;45426;44.726;10.390;2023-01-25T13:30:30;101319.47;;;9.74;100.00
59608;BME280;45426;44.726;10.390;2023-01-25T13:40:30;101320.50;;;9.37;100.00
59608;BME280;45426;44.726;10.390;2023-01-25T13:43:01;101314.78;;;9.66;100.00
59608;BME280;45426;44.726;10.390;2023-01-25T13:45:28;101310.16;;;9.39;100.00
59608;BME280;45426;44.726;10.390;2023-01-25T13:50:38;101315.59;;;9.39;100.00
59608;BME280;45426;44.726;10.390;2023-01-25T13:55:41;101306.13;;;9.64;100.00
59608;BME280;45426;44.726;10.390;2023-01-25T13:58:19;101310.97;;;9.53;100.00
59608;BME280;45426;44.726;10.390;2023-01-25T14:00:56;101301.94;;;9.94;100.00
59608;BME280;45426;44.726;10.390;2023-01-25T14:03:35;101305.91;;;9.74;100.00
59608;BME280;45426;44.726;10.390;2023-01-25T14:06:01;101296.78;;;9.70;100.00
59608;BME280;45426;44.726;10.390;2023-01-25T14:08:29;101304.69;;;9.80;100.00
59608;BME280;45426;44.726;10.390;2023-01-25T14:10:55;101292.50;;;9.91;100.00
59608;BME280;45426;44.726;10.390;2023-01-25T14:13:21;101291.34;;;9.70;100.00
59608;BME280;45426;44.726;10.390;2023-01-25T14:15:58;101292.53;;;9.78;100.00
59608;BME280;45426;44.726;10.390;2023-01-25T14:18:34;101289.41;;;9.84;100.00
59608;BME280;45426;44.726;10.390;2023-01-25T14:21:11;101291.69;;;9.55;100.00
59608;BME280;45426;44.726;10.390;2023-01-25T14:23:38;101298.28;;;9.62;100.00
59608;BME280;45426;44.726;10.390;2023-01-25T14:28:43;101301.53;;;9.23;100.00
59608;BME280;45426;44.726;10.390;2023-01-25T14:31:19;101291.50;;;9.37;100.00
59608;BME280;45426;44.726;10.390;2023-01-25T14:33:45;101294.00;;;9.06;100.00
59608;BME280;45426;44.726;10.390;2023-01-25T14:36:13;101284.69;;;9.26;100.00